sensor_id;sensor_type;location;lat;lon;timestamp;temperature;humidity
30300;DHT22;17110;52.602;12.998;2024-01-25T00:01:38;8.20;99.90
30300;DHT22;17110;52.602;12.998;2024-01-25T00:06:38;8.20;99.90
30300;DHT22;17110;52.602;12.998;2024-01-25T00:11:39;8.20;99.90
30300;DHT22;17110;52.602;12.998;2024-01-25T00:16:42;8.20;99.90
30300;DHT22;17110;52.602;12.998;2024-01-25T00:21:42;8.20;99.90
30300;DHT22;17110;52.602;12.998;2024-01-25T00:26:43;8.20;99.90
30300;DHT22;17110;52.602;12.998;2024-01-25T00:31:45;8.30;99.90
30300;DHT22;17110;52.602;12.998;2024-01-25T00:36:46;8.30;99.90
30300;DHT22;17110;52.602;12.998;2024-01-25T00:41:51;8.30;99.90
30300;DHT22;17110;52.602;12.998;2024-01-25T00:46:54;8.30;99.90
30300;DHT22;17110;52.602;12.998;2024-01-25T00:51:59;8.30;99.90
30300;DHT22;17110;52.602;12.998;2024-01-25T00:57:00;8.30;99.90
30300;DHT22;17110;52.602;12.998;2024-01-25T01:02:04;8.30;99.90
30300;DHT22;17110;52.602;12.998;2024-01-25T01:07:06;8.40;99.90
30300;DHT22;17110;52.602;12.998;2024-01-25T01:12:07;8.40;99.90
30300;DHT22;17110;52.602;12.998;2024-01-25T01:17:09;8.40;99.90
30300;DHT22;17110;52.602;12.998;2024-01-25T01:22:09;8.30;99.90
30300;DHT22;17110;52.602;12.998;2024-01-25T01:27:10;8.40;99.90
30300;DHT22;17110;52.602;12.998;2024-01-25T01:32:12;8.30;99.90
30300;DHT22;17110;52.602;12.998;2024-01-25T01:37:13;8.30;99.90
30300;DHT22;17110;52.602;12.998;2024-01-25T01:42:13;8.30;99.90
30300;DHT22;17110;52.602;12.998;2024-01-25T01:47:15;8.30;99.90
30300;DHT22;17110;52.602;12.998;2024-01-25T01:52:16;8.30;99.90
30300;DHT22;17110;52.602;12.998;2024-01-25T01:57:18;8.30;99.90
30300;DHT22;17110;52.602;12.998;2024-01-25T02:02:20;8.20;99.90
30300;DHT22;17110;52.602;12.998;2024-01-25T02:07:20;8.20;99.90
30300;DHT22;17110;52.602;12.998;2024-01-25T02:12:21;8.20;99.90
30300;DHT22;17110;52.602;12.998;2024-01-25T02:17:23;8.10;99.90
30300;DHT22;17110;52.602;12.998;2024-01-25T02:22:25;8.20;99.90
30300;DHT22;17110;52.602;12.998;2024-01-25T02:27:26;8.10;99.90
30300;DHT22;17110;52.602;12.998;2024-01-25T02:32:26;8.10;99.90
30300;DHT22;17110;52.602;12.998;2024-01-25T02:37:28;8.10;99.90
30300;DHT22;17110;52.602;12.998;2024-01-25T02:42:29;8.00;99.90
30300;DHT22;17110;52.602;12.998;2024-01-25T02:47:29;8.00;99.90
30300;DHT22;17110;52.602;12.998;2024-01-25T02:52:31;8.00;99.90
30300;DHT22;17110;52.602;12.998;2024-01-25T02:57:32;8.10;99.90
30300;DHT22;17110;52.602;12.998;2024-01-25T03:02:32;8.00;99.90
30300;DHT22;17110;52.602;12.998;2024-01-25T03:07:34;8.00;99.90
30300;DHT22;17110;52.602;12.998;2024-01-25T03:12:35;8.00;99.90
30300;DHT22;17110;52.602;12.998;2024-01-25T03:17:36;8.00;99.90
30300;DHT22;17110;52.602;12.998;2024-01-25T03:22:38;8.00;99.90
30300;DHT22;17110;52.602;12.998;2024-01-25T03:27:38;8.00;99.90
30300;DHT22;17110;52.602;12.998;2024-01-25T03:32:39;8.00;99.90
30300;DHT22;17110;52.602;12.998;2024-01-25T03:37:41;8.00;99.90
30300;DHT22;17110;52.602;12.998;2024-01-25T03:42:41;7.90;99.90
30300;DHT22;17110;52.602;12.998;2024-01-25T03:47:42;7.90;99.90
30300;DHT22;17110;52.602;12.998;2024-01-25T03:52:44;7.90;99.90
30300;DHT22;17110;52.602;12.998;2024-01-25T03:57:45;8.00;99.90
30300;DHT22;17110;52.602;12.998;2024-01-25T04:02:45;7.90;99.90
30300;DHT22;17110;52.602;12.998;2024-01-25T04:07:47;7.80;99.90
30300;DHT22;17110;52.602;12.998;2024-01-25T04:12:48;7.80;99.90
30300;DHT22;17110;52.602;12.998;2024-01-25T04:17:48;7.80;99.90
30300;DHT22;17110;52.602;12.998;2024-01-25T04:22:50;7.80;99.90
30300;DHT22;17110;52.602;12.998;2024-01-25T04:27:51;7.80;99.90
30300;DHT22;17110;52.602;12.998;2024-01-25T04:32:51;7.80;99.90
30300;DHT22;17110;52.602;12.998;2024-01-25T04:37:53;7.80;99.90
30300;DHT22;17110;52.602;12.998;2024-01-25T04:42:54;7.80;99.90
30300;DHT22;17110;52.602;12.998;2024-01-25T04:47:55;7.70;99.90
30300;DHT22;17110;52.602;12.998;2024-01-25T04:52:57;7.80;99.90
30300;DHT22;17110;52.602;12.998;2024-01-25T04:57:57;7.80;99.90
30300;DHT22;17110;52.602;12.998;2024-01-25T05:02:58;7.80;99.90
30300;DHT22;17110;52.602;12.998;2024-01-25T05:08:00;7.80;99.90
30300;DHT22;17110;52.602;12.998;2024-01-25T05:13:00;7.70;99.90
30300;DHT22;17110;52.602;12.998;2024-01-25T05:18:01;7.80;99.90
30300;DHT22;17110;52.602;12.998;2024-01-25T05:23:04;7.70;99.90
30300;DHT22;17110;52.602;12.998;2024-01-25T05:28:05;7.80;99.90
30300;DHT22;17110;52.602;12.998;2024-01-25T05:33:06;7.80;99.90
30300;DHT22;17110;52.602;12.998;2024-01-25T05:38:08;7.80;99.90
30300;DHT22;17110;52.602;12.998;2024-01-25T05:43:08;7.80;99.90
30300;DHT22;17110;52.602;12.998;2024-01-25T05:48:09;7.80;99.90
30300;DHT22;17110;52.602;12.998;2024-01-25T05:53:11;7.80;99.90
30300;DHT22;17110;52.602;12.998;2024-01-25T05:58:11;7.80;99.90
30300;DHT22;17110;52.602;12.998;2024-01-25T06:03:12;7.80;99.90
30300;DHT22;17110;52.602;12.998;2024-01-25T06:08:14;7.80;99.90
30300;DHT22;17110;52.602;12.998;2024-01-25T06:13:15;7.80;99.90
30300;DHT22;17110;52.602;12.998;2024-01-25T06:18:15;7.80;99.90
30300;DHT22;17110;52.602;12.998;2024-01-25T06:23:17;7.80;99.90
30300;DHT22;17110;52.602;12.998;2024-01-25T06:28:18;7.70;99.90
30300;DHT22;17110;52.602;12.998;2024-01-25T06:33:18;7.70;99.90
30300;DHT22;17110;52.602;12.998;2024-01-25T06:38:20;7.70;99.90
30300;DHT22;17110;52.602;12.998;2024-01-25T06:43:21;7.70;99.90
30300;DHT22;17110;52.602;12.998;2024-01-25T06:48:22;7.70;99.90
30300;DHT22;17110;52.602;12.998;2024-01-25T06:53:24;7.70;99.90
30300;DHT22;17110;52.602;12.998;2024-01-25T06:58:24;7.70;99.90
30300;DHT22;17110;52.602;12.998;2024-01-25T07:03:25;7.70;99.90
30300;DHT22;17110;52.602;12.998;2024-01-25T07:08:27;7.80;99.90
30300;DHT22;17110;52.602;12.998;2024-01-25T07:13:28;7.80;99.90
30300;DHT22;17110;52.602;12.998;2024-01-25T07:18:28;7.80;99.90
30300;DHT22;17110;52.602;12.998;2024-01-25T07:23:30;7.70;99.90
30300;DHT22;17110;52.602;12.998;2024-01-25T07:28:31;7.70;99.90
30300;DHT22;17110;52.602;12.998;2024-01-25T07:33:32;7.60;99.90
30300;DHT22;17110;52.602;12.998;2024-01-25T07:38:34;7.60;99.90
30300;DHT22;17110;52.602;12.998;2024-01-25T07:43:34;7.60;99.90
30300;DHT22;17110;52.602;12.998;2024-01-25T07:48:35;7.70;99.90
30300;DHT22;17110;52.602;12.998;2024-01-25T07:53:37;7.70;99.90
30300;DHT22;17110;52.602;12.998;2024-01-25T07:58:37;7.60;99.90
30300;DHT22;17110;52.602;12.998;2024-01-25T08:03:38;7.70;99.90
30300;DHT22;17110;52.602;12.998;2024-01-25T08:08:40;7.70;99.90
30300;DHT22;17110;52.602;12.998;2024-01-25T08:13:42;7.70;99.90
30300;DHT22;17110;52.602;12.998;2024-01-25T08:18:43;7.70;99.90
30300;DHT22;17110;52.602;12.998;2024-01-25T08:23:45;7.80;99.90
30300;DHT22;17110;52.602;12.998;2024-01-25T08:28:46;7.70;99.90
30300;DHT22;17110;52.602;12.998;2024-01-25T08:33:47;7.80;99.90
30300;DHT22;17110;52.602;12.998;2024-01-25T08:38:49;7.90;99.90
30300;DHT22;17110;52.602;12.998;2024-01-25T08:43:49;7.90;99.90
30300;DHT22;17110;52.602;12.998;2024-01-25T08:48:50;7.90;99.90
30300;DHT22;17110;52.602;12.998;2024-01-25T08:53:52;8.00;99.90
30300;DHT22;17110;52.602;12.998;2024-01-25T08:58:53;8.00;99.90
30300;DHT22;17110;52.602;12.998;2024-01-25T09:03:53;8.00;99.90
30300;DHT22;17110;52.602;12.998;2024-01-25T09:08:55;8.00;99.90
30300;DHT22;17110;52.602;12.998;2024-01-25T09:13:56;8.10;99.90
30300;DHT22;17110;52.602;12.998;2024-01-25T09:18:56;8.10;99.90
30300;DHT22;17110;52.602;12.998;2024-01-25T09:23:58;8.20;99.90
30300;DHT22;17110;52.602;12.998;2024-01-25T09:28:59;8.20;99.90
30300;DHT22;17110;52.602;12.998;2024-01-25T09:34:00;8.30;99.90
30300;DHT22;17110;52.602;12.998;2024-01-25T09:39:02;8.20;99.90
30300;DHT22;17110;52.602;12.998;2024-01-25T09:44:03;8.20;99.90
30300;DHT22;17110;52.602;12.998;2024-01-25T09:49:04;8.10;99.90
30300;DHT22;17110;52.602;12.998;2024-01-25T09:54:06;8.10;99.90
30300;DHT22;17110;52.602;12.998;2024-01-25T09:59:08;8.10;99.90
30300;DHT22;17110;52.602;12.998;2024-01-25T10:04:09;8.20;99.90
30300;DHT22;17110;52.602;12.998;2024-01-25T10:09:13;8.30;99.90
30300;DHT22;17110;52.602;12.998;2024-01-25T10:14:17;8.40;99.90
30300;DHT22;17110;52.602;12.998;2024-01-25T10:19:17;8.50;99.90
30300;DHT22;17110;52.602;12.998;2024-01-25T10:24:19;8.60;99.90
30300;DHT22;17110;52.602;12.998;2024-01-25T10:29:21;8.60;99.90
30300;DHT22;17110;52.602;12.998;2024-01-25T10:34:23;8.60;99.90
30300;DHT22;17110;52.602;12.998;2024-01-25T10:39:26;8.70;99.90
30300;DHT22;17110;52.602;12.998;2024-01-25T10:44:27;8.60;99.90
30300;DHT22;17110;52.602;12.998;2024-01-25T10:49:28;8.60;99.90
30300;DHT22;17110;52.602;12.998;2024-01-25T10:54:30;8.70;99.90
30300;DHT22;17110;52.602;12.998;2024-01-25T10:59:31;8.60;99.90
30300;DHT22;17110;52.602;12.998;2024-01-25T11:04:32;8.70;99.90
30300;DHT22;17110;52.602;12.998;2024-01-25T11:09:35;8.70;99.90
30300;DHT22;17110;52.602;12.998;2024-01-25T11:14:37;8.70;99.90
30300;DHT22;17110;52.602;12.998;2024-01-25T11:19:38;8.80;99.90
30300;DHT22;17110;52.602;12.998;2024-01-25T11:24:41;8.80;99.90
30300;DHT22;17110;52.602;12.998;2024-01-25T11:29:42;8.90;99.90
30300;DHT22;17110;52.602;12.998;2024-01-25T11:34:43;8.80;99.90
30300;DHT22;17110;52.602;12.998;2024-01-25T11:39:45;8.90;99.90
30300;DHT22;17110;52.602;12.998;2024-01-25T11:44:45;8.80;99.90
30300;DHT22;17110;52.602;12.998;2024-01-25T11:49:46;8.90;99.90
30300;DHT22;17110;52.602;12.998;2024-01-25T11:54:48;9.00;99.90
30300;DHT22;17110;52.602;12.998;2024-01-25T11:59:49;9.10;99.90
30300;DHT22;17110;52.602;12.998;2024-01-25T12:04:50;9.10;99.90
30300;DHT22;17110;52.602;12.998;2024-01-25T12:09:59;9.10;99.90
30300;DHT22;17110;52.602;12.998;2024-01-25T12:15:00;9.00;99.90
30300;DHT22;17110;52.602;12.998;2024-01-25T12:20:00;9.00;99.90
30300;DHT22;17110;52.602;12.998;2024-01-25T12:25:04;9.10;99.90
30300;DHT22;17110;52.602;12.998;2024-01-25T12:30:07;9.10;99.90
30300;DHT22;17110;52.602;12.998;2024-01-25T12:35:08;9.30;99.90
30300;DHT22;17110;52.602;12.998;2024-01-25T12:40:11;9.30;99.90
30300;DHT22;17110;52.602;12.998;2024-01-25T12:45:12;9.50;99.90
30300;DHT22;17110;52.602;12.998;2024-01-25T12:50:12;9.70;99.90
30300;DHT22;17110;52.602;12.998;2024-01-25T12:55:14;9.60;99.90
30300;DHT22;17110;52.602;12.998;2024-01-25T13:00:16;9.50;99.90
30300;DHT22;17110;52.602;12.998;2024-01-25T13:05:16;9.40;99.90
30300;DHT22;17110;52.602;12.998;2024-01-25T13:10:18;9.30;99.90
30300;DHT22;17110;52.602;12.998;2024-01-25T13:15:19;9.50;99.90
30300;DHT22;17110;52.602;12.998;2024-01-25T13:20:19;9.50;99.90
30300;DHT22;17110;52.602;12.998;2024-01-25T13:25:21;9.40;99.90
30300;DHT22;17110;52.602;12.998;2024-01-25T13:30:22;9.30;99.90
30300;DHT22;17110;52.602;12.998;2024-01-25T13:35:23;9.20;99.90
30300;DHT22;17110;52.602;12.998;2024-01-25T13:40:25;9.10;99.90
30300;DHT22;17110;52.602;12.998;2024-01-25T13:45:25;9.00;99.90
30300;DHT22;17110;52.602;12.998;2024-01-25T13:50:26;9.10;99.90
30300;DHT22;17110;52.602;12.998;2024-01-25T13:55:28;9.00;99.90
30300;DHT22;17110;52.602;12.998;2024-01-25T14:00:28;8.80;99.90
30300;DHT22;17110;52.602;12.998;2024-01-25T14:05:29;8.70;99.90
30300;DHT22;17110;52.602;12.998;2024-01-25T14:10:31;8.60;99.90
30300;DHT22;17110;52.602;12.998;2024-01-25T14:15:32;8.70;99.90
30300;DHT22;17110;52.602;12.998;2024-01-25T14:20:32;8.70;99.90
30300;DHT22;17110;52.602;12.998;2024-01-25T14:25:34;8.60;99.90
30300;DHT22;17110;52.602;12.998;2024-01-25T14:30:35;8.50;99.90
30300;DHT22;17110;52.602;12.998;2024-01-25T14:35:35;8.40;99.90
30300;DHT22;17110;52.602;12.998;2024-01-25T14:40:37;8.40;99.90
30300;DHT22;17110;52.602;12.998;2024-01-25T14:45:38;8.40;99.90
30300;DHT22;17110;52.602;12.998;2024-01-25T14:50:39;8.30;99.90
30300;DHT22;17110;52.602;12.998;2024-01-25T14:55:41;8.30;99.90
30300;DHT22;17110;52.602;12.998;2024-01-25T15:00:41;8.30;99.90
30300;DHT22;17110;52.602;12.998;2024-01-25T15:05:42;8.20;99.90
30300;DHT22;17110;52.602;12.998;2024-01-25T15:10:44;8.20;99.90
30300;DHT22;17110;52.602;12.998;2024-01-25T15:15:44;8.20;99.90
30300;DHT22;17110;52.602;12.998;2024-01-25T15:20:45;8.10;99.90
30300;DHT22;17110;52.602;12.998;2024-01-25T15:25:47;8.10;99.90
30300;DHT22;17110;52.602;12.998;2024-01-25T15:30:48;8.10;99.90
30300;DHT22;17110;52.602;12.998;2024-01-25T15:35:48;8.10;99.90
30300;DHT22;17110;52.602;12.998;2024-01-25T15:40:50;8.00;99.90
30300;DHT22;17110;52.602;12.998;2024-01-25T15:45:51;8.00;99.90
30300;DHT22;17110;52.602;12.998;2024-01-25T15:50:52;7.90;99.90
30300;DHT22;17110;52.602;12.998;2024-01-25T15:55:54;7.90;99.90
30300;DHT22;17110;52.602;12.998;2024-01-25T16:00:55;7.90;99.90
30300;DHT22;17110;52.602;12.998;2024-01-25T16:05:55;7.80;99.90
30300;DHT22;17110;52.602;12.998;2024-01-25T16:10:57;7.80;99.90
30300;DHT22;17110;52.602;12.998;2024-01-25T16:15:58;7.80;99.90
30300;DHT22;17110;52.602;12.998;2024-01-25T16:20:59;7.80;99.90
30300;DHT22;17110;52.602;12.998;2024-01-25T16:26:01;7.80;99.90
30300;DHT22;17110;52.602;12.998;2024-01-25T16:31:01;7.70;99.90
30300;DHT22;17110;52.602;12.998;2024-01-25T16:36:02;7.70;99.90
30300;DHT22;17110;52.602;12.998;2024-01-25T16:41:04;7.60;99.90
30300;DHT22;17110;52.602;12.998;2024-01-25T16:46:05;7.60;99.90
30300;DHT22;17110;52.602;12.998;2024-01-25T16:51:05;7.60;99.90
30300;DHT22;17110;52.602;12.998;2024-01-25T16:56:07;7.60;99.90
30300;DHT22;17110;52.602;12.998;2024-01-25T17:01:08;7.60;99.90
30300;DHT22;17110;52.602;12.998;2024-01-25T17:06:09;7.60;99.90
30300;DHT22;17110;52.602;12.998;2024-01-25T17:11:11;7.50;99.90
30300;DHT22;17110;52.602;12.998;2024-01-25T17:16:11;7.50;99.90
30300;DHT22;17110;52.602;12.998;2024-01-25T17:21:12;7.40;99.90
30300;DHT22;17110;52.602;12.998;2024-01-25T17:26:14;7.40;99.90
30300;DHT22;17110;52.602;12.998;2024-01-25T17:31:15;7.40;99.90
30300;DHT22;17110;52.602;12.998;2024-01-25T17:36:16;7.40;99.90
30300;DHT22;17110;52.602;12.998;2024-01-25T17:41:18;7.20;99.90
30300;DHT22;17110;52.602;12.998;2024-01-25T17:46:19;7.20;99.90
30300;DHT22;17110;52.602;12.998;2024-01-25T17:51:19;7.00;99.90
30300;DHT22;17110;52.602;12.998;2024-01-25T17:56:21;7.00;99.90
30300;DHT22;17110;52.602;12.998;2024-01-25T18:01:22;7.00;99.90
30300;DHT22;17110;52.602;12.998;2024-01-25T18:06:22;7.00;99.90
30300;DHT22;17110;52.602;12.998;2024-01-25T18:11:24;6.90;99.90
30300;DHT22;17110;52.602;12.998;2024-01-25T18:16:25;6.90;99.90
30300;DHT22;17110;52.602;12.998;2024-01-25T18:21:25;6.80;99.90
30300;DHT22;17110;52.602;12.998;2024-01-25T18:26:27;6.80;99.90
30300;DHT22;17110;52.602;12.998;2024-01-25T18:31:28;6.80;99.90
30300;DHT22;17110;52.602;12.998;2024-01-25T18:36:29;6.70;99.90
30300;DHT22;17110;52.602;12.998;2024-01-25T18:41:31;6.70;99.90
30300;DHT22;17110;52.602;12.998;2024-01-25T18:46:31;6.60;99.90
30300;DHT22;17110;52.602;12.998;2024-01-25T18:51:32;6.60;99.90
30300;DHT22;17110;52.602;12.998;2024-01-25T18:56:34;6.50;99.90
30300;DHT22;17110;52.602;12.998;2024-01-25T19:01:35;6.50;99.90
30300;DHT22;17110;52.602;12.998;2024-01-25T19:06:37;6.40;99.90
30300;DHT22;17110;52.602;12.998;2024-01-25T19:11:39;6.40;99.90
30300;DHT22;17110;52.602;12.998;2024-01-25T19:16:40;6.40;99.90
30300;DHT22;17110;52.602;12.998;2024-01-25T19:21:40;6.40;99.90
30300;DHT22;17110;52.602;12.998;2024-01-25T19:26:43;6.30;99.90
30300;DHT22;17110;52.602;12.998;2024-01-25T19:31:43;6.30;99.90
30300;DHT22;17110;52.602;12.998;2024-01-25T19:36:44;6.20;99.90
30300;DHT22;17110;52.602;12.998;2024-01-25T19:41:46;6.20;99.90
30300;DHT22;17110;52.602;12.998;2024-01-25T19:46:47;6.10;99.90
30300;DHT22;17110;52.602;12.998;2024-01-25T19:51:47;6.10;99.90
30300;DHT22;17110;52.602;12.998;2024-01-25T19:56:49;6.10;99.90
30300;DHT22;17110;52.602;12.998;2024-01-25T20:01:50;6.00;99.90
30300;DHT22;17110;52.602;12.998;2024-01-25T20:06:52;6.00;99.90
30300;DHT22;17110;52.602;12.998;2024-01-25T20:11:54;6.00;99.90
30300;DHT22;17110;52.602;12.998;2024-01-25T20:16:54;5.90;99.90
30300;DHT22;17110;52.602;12.998;2024-01-25T20:21:55;5.90;99.90
30300;DHT22;17110;52.602;12.998;2024-01-25T20:26:57;5.90;99.90
30300;DHT22;17110;52.602;12.998;2024-01-25T20:31:57;5.90;99.90
30300;DHT22;17110;52.602;12.998;2024-01-25T20:36:58;5.90;99.90
30300;DHT22;17110;52.602;12.998;2024-01-25T20:42:00;5.90;99.90
30300;DHT22;17110;52.602;12.998;2024-01-25T20:47:01;5.80;99.90
30300;DHT22;17110;52.602;12.998;2024-01-25T20:52:01;5.80;99.90
30300;DHT22;17110;52.602;12.998;2024-01-25T20:57:04;5.70;99.90
30300;DHT22;17110;52.602;12.998;2024-01-25T21:02:06;5.70;99.90
30300;DHT22;17110;52.602;12.998;2024-01-25T21:07:07;5.60;99.90
30300;DHT22;17110;52.602;12.998;2024-01-25T21:12:11;5.60;99.90
30300;DHT22;17110;52.602;12.998;2024-01-25T21:17:12;5.60;99.90
30300;DHT22;17110;52.602;12.998;2024-01-25T21:22:12;5.60;99.90
30300;DHT22;17110;52.602;12.998;2024-01-25T21:27:14;5.60;99.90
30300;DHT22;17110;52.602;12.998;2024-01-25T21:32:15;5.50;99.90
30300;DHT22;17110;52.602;12.998;2024-01-25T21:37:16;5.40;99.90
30300;DHT22;17110;52.602;12.998;2024-01-25T21:42:18;5.30;99.90
30300;DHT22;17110;52.602;12.998;2024-01-25T21:47:18;5.30;99.90
30300;DHT22;17110;52.602;12.998;2024-01-25T21:52:19;5.30;99.90
30300;DHT22;17110;52.602;12.998;2024-01-25T21:57:21;5.30;99.90
30300;DHT22;17110;52.602;12.998;2024-01-25T22:02:21;5.20;99.90
30300;DHT22;17110;52.602;12.998;2024-01-25T22:07:22;5.10;99.90
30300;DHT22;17110;52.602;12.998;2024-01-25T22:12:24;5.00;99.90
30300;DHT22;17110;52.602;12.998;2024-01-25T22:17:25;4.90;99.90
30300;DHT22;17110;52.602;12.998;2024-01-25T22:22:25;4.70;99.90
30300;DHT22;17110;52.602;12.998;2024-01-25T22:27:27;4.70;99.90
30300;DHT22;17110;52.602;12.998;2024-01-25T22:32:28;4.70;99.90
30300;DHT22;17110;52.602;12.998;2024-01-25T22:37:29;4.70;99.90
30300;DHT22;17110;52.602;12.998;2024-01-25T22:42:30;4.70;99.90
30300;DHT22;17110;52.602;12.998;2024-01-25T22:47:31;4.60;99.90
30300;DHT22;17110;52.602;12.998;2024-01-25T22:52:32;4.50;99.90
30300;DHT22;17110;52.602;12.998;2024-01-25T22:57:34;4.40;99.90
30300;DHT22;17110;52.602;12.998;2024-01-25T23:02:34;4.20;99.90
30300;DHT22;17110;52.602;12.998;2024-01-25T23:07:35;4.10;99.90
30300;DHT22;17110;52.602;12.998;2024-01-25T23:12:37;4.00;99.90
30300;DHT22;17110;52.602;12.998;2024-01-25T23:17:38;3.80;99.90
30300;DHT22;17110;52.602;12.998;2024-01-25T23:22:39;3.70;99.90
30300;DHT22;17110;52.602;12.998;2024-01-25T23:27:41;3.50;99.90
30300;DHT22;17110;52.602;12.998;2024-01-25T23:32:42;3.40;99.90
30300;DHT22;17110;52.602;12.998;2024-01-25T23:37:42;3.20;99.90
30300;DHT22;17110;52.602;12.998;2024-01-25T23:42:44;3.10;99.90
30300;DHT22;17110;52.602;12.998;2024-01-25T23:47:45;3.00;99.90
30300;DHT22;17110;52.602;12.998;2024-01-25T23:52:45;2.80;99.90
30300;DHT22;17110;52.602;12.998;2024-01-25T23:57:47;2.60;99.90
